createdAt,value
2022-09-11T00:01:40.255Z,14.65
2022-09-11T00:04:09.753Z,14.63
2022-09-11T00:06:37.710Z,14.60
2022-09-11T00:09:06.882Z,14.60
2022-09-11T00:11:40.691Z,14.55
2022-09-11T00:14:11.390Z,14.60
2022-09-11T00:16:41.882Z,14.55
2022-09-11T00:19:13.555Z,14.50
2022-09-11T00:21:41.302Z,14.42
2022-09-11T00:24:09.932Z,14.39
2022-09-11T00:26:38.750Z,14.36
2022-09-11T00:29:06.588Z,14.32
2022-09-11T00:31:34.950Z,14.30
2022-09-11T00:34:02.923Z,14.29
2022-09-11T00:36:31.875Z,14.22
2022-09-11T00:39:00.711Z,14.19
2022-09-11T00:41:40.693Z,14.18
2022-09-11T00:44:18.631Z,14.12
2022-09-11T00:46:53.218Z,14.08
2022-09-11T00:49:30.438Z,14.02
2022-09-11T00:52:12.500Z,14.01
2022-09-11T00:54:56.506Z,14.00
2022-09-11T00:57:28.757Z,13.93
2022-09-11T00:59:58.910Z,13.95
2022-09-11T01:02:28.721Z,13.97
2022-09-11T01:04:58.003Z,13.98
2022-09-11T01:07:26.967Z,14.01
2022-09-11T01:09:55.785Z,14.01
2022-09-11T01:12:47.614Z,13.97
2022-09-11T01:15:39.488Z,14.01
2022-09-11T01:18:40.712Z,13.94
2022-09-11T01:21:46.114Z,13.95
2022-09-11T01:24:22.782Z,14.00
2022-09-11T01:27:14.525Z,14.02
2022-09-11T01:29:49.490Z,13.97
2022-09-11T01:32:33.140Z,13.97
2022-09-11T01:35:11.984Z,13.90
2022-09-11T01:37:43.383Z,13.83
2022-09-11T01:40:24.130Z,13.87
2022-09-11T01:42:57.744Z,13.85
2022-09-11T01:45:26.378Z,13.84
2022-09-11T01:47:55.935Z,13.77
2022-09-11T01:50:25.905Z,13.69
2022-09-11T01:53:00.652Z,13.63
2022-09-11T01:55:31.919Z,13.52
2022-09-11T01:58:06.499Z,13.49
2022-09-11T02:00:38.810Z,13.45
2022-09-11T02:03:14.353Z,13.46
2022-09-11T02:06:04.338Z,13.40
2022-09-11T02:08:41.910Z,13.34
2022-09-11T02:11:12.537Z,13.29
2022-09-11T02:13:55.072Z,13.32
2022-09-11T02:16:31.675Z,13.39
2022-09-11T02:19:06.144Z,13.39
2022-09-11T02:21:35.611Z,13.36
2022-09-11T02:24:04.436Z,13.42
2022-09-11T02:26:38.638Z,13.32
2022-09-11T02:29:08.224Z,13.21
2022-09-11T02:31:37.351Z,13.16
2022-09-11T02:34:05.316Z,13.14
2022-09-11T02:36:45.768Z,13.15
2022-09-11T02:39:36.398Z,13.11
2022-09-11T02:42:18.914Z,13.10
2022-09-11T02:45:18.998Z,13.01
2022-09-11T02:48:10.323Z,12.98
2022-09-11T02:50:50.684Z,12.98
2022-09-11T02:53:29.434Z,12.97
2022-09-11T02:56:18.388Z,12.93
2022-09-11T02:59:01.321Z,12.90
2022-09-11T03:01:31.819Z,12.83
2022-09-11T03:04:00.100Z,12.83
2022-09-11T03:06:28.104Z,12.84
2022-09-11T03:08:55.802Z,12.80
2022-09-11T03:11:24.478Z,12.74
2022-09-11T03:13:52.548Z,12.70
2022-09-11T03:16:20.663Z,12.74
2022-09-11T03:18:48.598Z,12.77
2022-09-11T03:21:16.838Z,12.80
2022-09-11T03:23:44.897Z,12.80
2022-09-11T03:26:12.583Z,12.88
2022-09-11T03:28:40.300Z,12.83
2022-09-11T03:31:09.489Z,12.83
2022-09-11T03:33:37.768Z,12.84
2022-09-11T03:36:06.045Z,12.81
2022-09-11T03:38:33.781Z,12.79
2022-09-11T03:41:03.331Z,12.77
2022-09-11T03:43:33.222Z,12.74
2022-09-11T03:46:01.307Z,12.73
2022-09-11T03:48:29.409Z,12.72
2022-09-11T03:50:58.826Z,12.68
2022-09-11T03:53:27.166Z,12.68
2022-09-11T03:55:54.937Z,12.67
2022-09-11T03:58:23.112Z,12.60
2022-09-11T04:00:50.924Z,12.53
2022-09-11T04:03:19.153Z,12.52
2022-09-11T04:05:58.117Z,12.45
2022-09-11T04:08:26.278Z,12.42
2022-09-11T04:10:57.838Z,12.40
2022-09-11T04:13:34.325Z,12.39
2022-09-11T04:16:13.338Z,12.39
2022-09-11T04:18:44.295Z,12.36
2022-09-11T04:21:14.824Z,12.30
2022-09-11T04:23:45.190Z,12.24
2022-09-11T04:26:18.478Z,12.19
2022-09-11T04:28:49.757Z,12.21
2022-09-11T04:31:19.633Z,12.21
2022-09-11T04:33:49.161Z,12.19
2022-09-11T04:36:19.199Z,12.18
2022-09-11T04:38:48.230Z,12.18
2022-09-11T04:41:17.316Z,12.21
2022-09-11T04:43:45.369Z,12.22
2022-09-11T04:46:16.885Z,12.28
2022-09-11T04:48:59.192Z,12.22
2022-09-11T04:51:38.252Z,12.18
2022-09-11T04:54:10.547Z,12.14
2022-09-11T04:56:38.923Z,12.12
2022-09-11T04:59:20.227Z,12.12
2022-09-11T05:01:56.788Z,12.14
2022-09-11T05:04:26.472Z,12.11
2022-09-11T05:06:55.651Z,12.11
2022-09-11T05:09:25.745Z,12.12
2022-09-11T05:11:54.496Z,12.08
2022-09-11T05:14:25.324Z,12.04
2022-09-11T05:16:55.036Z,12.05
2022-09-11T05:19:25.790Z,12.08
2022-09-11T05:21:53.710Z,12.12
2022-09-11T05:24:21.445Z,12.24
2022-09-11T05:26:49.263Z,12.36
2022-09-11T05:29:19.521Z,12.61
2022-09-11T05:31:55.131Z,12.98
2022-09-11T05:34:22.967Z,13.29
2022-09-11T05:36:52.227Z,13.55
2022-09-11T05:39:20.212Z,13.80
2022-09-11T05:41:51.721Z,14.05
2022-09-11T05:44:19.850Z,14.28
2022-09-11T05:46:48.680Z,14.53
2022-09-11T05:49:16.388Z,14.77
2022-09-11T05:51:44.164Z,14.91
2022-09-11T05:54:11.975Z,15.08
2022-09-11T05:56:41.576Z,15.32
2022-09-11T05:59:15.433Z,15.74
2022-09-11T06:01:45.947Z,15.89
2022-09-11T06:04:21.173Z,16.07
2022-09-11T06:06:52.119Z,16.07
2022-09-11T06:09:20.519Z,16.19
2022-09-11T06:11:49.286Z,16.45
2022-09-11T06:14:17.532Z,16.57
2022-09-11T06:16:45.735Z,16.73
2022-09-11T06:19:16.791Z,16.91
2022-09-11T06:21:45.641Z,17.12
2022-09-11T06:24:39.874Z,17.40
2022-09-11T06:27:07.636Z,17.80
2022-09-11T06:29:38.428Z,18.14
2022-09-11T06:32:06.696Z,18.34
2022-09-11T06:34:34.694Z,18.37
2022-09-11T06:37:06.474Z,18.60
2022-09-11T06:39:34.234Z,18.90
2022-09-11T06:42:02.772Z,19.08
2022-09-11T06:44:35.017Z,19.31
2022-09-11T06:47:03.889Z,19.55
2022-09-11T06:49:32.158Z,19.94
2022-09-11T06:52:28.943Z,20.20
2022-09-11T06:55:07.905Z,20.41
2022-09-11T06:57:41.209Z,20.93
2022-09-11T07:00:14.260Z,21.27
2022-09-11T07:02:42.361Z,21.35
2022-09-11T07:05:11.689Z,21.23
2022-09-11T07:07:40.013Z,21.35
2022-09-11T07:10:10.362Z,21.55
2022-09-11T07:12:41.782Z,21.48
2022-09-11T07:15:10.533Z,21.71
2022-09-11T07:17:38.800Z,21.79
2022-09-11T07:20:09.886Z,21.97
2022-09-11T07:22:41.543Z,22.27
2022-09-11T07:25:09.443Z,22.24
2022-09-11T07:27:40.868Z,22.56
2022-09-11T07:30:11.390Z,22.44
2022-09-11T07:32:41.075Z,22.41
2022-09-11T07:35:12.960Z,22.69
2022-09-11T07:37:40.669Z,22.93
2022-09-11T07:40:08.965Z,22.96
2022-09-11T07:42:37.357Z,23.06
2022-09-11T07:45:05.582Z,22.99
2022-09-11T07:47:34.525Z,22.79
2022-09-11T07:50:03.467Z,22.86
2022-09-11T07:52:32.486Z,23.23
2022-09-11T07:55:03.680Z,23.00
2022-09-11T07:57:34.715Z,23.23
2022-09-11T08:00:07.293Z,22.88
2022-09-11T08:02:48.585Z,23.28
2022-09-11T08:05:21.755Z,23.07
2022-09-11T08:07:49.743Z,22.79
2022-09-11T08:10:27.271Z,22.79
2022-09-11T08:12:59.307Z,22.56
2022-09-11T08:15:29.721Z,22.24
2022-09-11T08:17:57.481Z,22.04
2022-09-11T08:20:25.380Z,21.73
2022-09-11T08:22:53.277Z,21.93
2022-09-11T08:25:21.091Z,21.66
2022-09-11T08:27:48.876Z,21.49
2022-09-11T08:30:19.975Z,21.23
2022-09-11T08:32:47.736Z,20.97
2022-09-11T08:35:15.647Z,21.11
2022-09-11T08:37:43.705Z,20.93
2022-09-11T08:40:13.135Z,20.77
2022-09-11T08:42:43.533Z,21.01
2022-09-11T08:45:20.332Z,21.39
2022-09-11T08:47:57.357Z,21.82
2022-09-11T08:50:42.696Z,22.20
2022-09-11T08:53:18.170Z,22.11
2022-09-11T08:56:00.563Z,21.80
2022-09-11T08:58:47.793Z,22.00
2022-09-11T09:01:26.133Z,21.66
2022-09-11T09:04:21.136Z,21.49
2022-09-11T09:07:02.927Z,21.20
2022-09-11T09:10:03.200Z,21.06
2022-09-11T09:12:51.132Z,20.45
2022-09-11T09:15:56.330Z,20.10
2022-09-11T09:18:33.885Z,19.89
2022-09-11T09:21:27.924Z,19.86
2022-09-11T09:23:58.964Z,19.69
2022-09-11T09:26:39.003Z,19.59
2022-09-11T09:29:17.790Z,19.48
2022-09-11T09:31:47.691Z,19.44
2022-09-11T09:34:19.772Z,19.44
2022-09-11T09:37:00.875Z,19.54
2022-09-11T09:39:29.499Z,19.65
2022-09-11T09:42:28.570Z,20.07
2022-09-11T09:45:15.779Z,20.52
2022-09-11T09:47:47.787Z,21.04
2022-09-11T09:50:21.717Z,21.35
2022-09-11T09:52:51.271Z,21.67
2022-09-11T09:55:20.427Z,21.72
2022-09-11T09:57:48.646Z,21.80
2022-09-11T10:00:19.847Z,22.04
2022-09-11T10:02:53.609Z,21.99
2022-09-11T10:05:41.386Z,22.04
2022-09-11T10:08:31.314Z,22.14
2022-09-11T10:11:01.696Z,22.01
2022-09-11T10:13:31.986Z,22.43
2022-09-11T10:16:05.077Z,22.66
2022-09-11T10:18:40.196Z,22.62
2022-09-11T10:21:20.025Z,22.68
2022-09-11T10:23:55.376Z,22.66
2022-09-11T10:26:49.783Z,22.47
2022-09-11T10:29:26.767Z,22.35
2022-09-11T10:32:05.722Z,22.65
2022-09-11T10:34:38.500Z,22.97
2022-09-11T10:37:15.070Z,22.95
2022-09-11T10:39:46.270Z,22.20
2022-09-11T10:42:23.125Z,22.44
2022-09-11T10:44:53.420Z,22.27
2022-09-11T10:47:22.029Z,21.99
2022-09-11T10:49:50.180Z,22.37
2022-09-11T10:52:22.175Z,22.47
2022-09-11T10:55:18.623Z,22.41
2022-09-11T10:58:05.327Z,22.72
2022-09-11T11:00:35.874Z,22.75
2022-09-11T11:03:17.236Z,22.69
2022-09-11T11:05:57.167Z,22.48
2022-09-11T11:09:00.037Z,22.49
2022-09-11T11:11:42.929Z,22.83
2022-09-11T11:14:41.456Z,22.83
2022-09-11T11:17:31.704Z,22.61
2022-09-11T11:20:18.614Z,22.75
2022-09-11T11:22:56.419Z,22.62
2022-09-11T11:25:50.977Z,22.40
2022-09-11T11:28:56.872Z,22.40
2022-09-11T11:31:41.348Z,22.28
2022-09-11T11:34:55.017Z,22.18
2022-09-11T11:37:28.260Z,22.04
2022-09-11T11:40:23.787Z,21.90
2022-09-11T11:43:13.971Z,21.94
2022-09-11T11:45:55.769Z,22.13
2022-09-11T11:48:31.412Z,21.92
2022-09-11T11:51:04.808Z,21.94
2022-09-11T11:53:48.702Z,22.06
2022-09-11T11:56:19.583Z,21.96
2022-09-11T11:58:56.073Z,21.75
2022-09-11T12:01:35.361Z,21.75
2022-09-11T12:04:42.595Z,21.78
2022-09-11T12:07:39.448Z,21.85
2022-09-11T12:10:22.215Z,21.94
2022-09-11T12:12:55.461Z,21.97
2022-09-11T12:15:25.816Z,21.97
2022-09-11T12:18:03.188Z,21.90
2022-09-11T12:20:33.771Z,21.93
2022-09-11T12:23:02.348Z,22.08
2022-09-11T12:25:31.136Z,22.14
2022-09-11T12:28:23.417Z,22.04
2022-09-11T12:31:19.386Z,22.14
2022-09-11T12:33:54.310Z,22.34
2022-09-11T12:36:53.903Z,22.58
2022-09-11T12:39:31.478Z,22.63
2022-09-11T12:42:20.986Z,22.45
2022-09-11T12:44:49.016Z,22.24
2022-09-11T12:47:23.347Z,22.18
2022-09-11T12:50:05.642Z,21.80
2022-09-11T12:52:44.177Z,21.65
2022-09-11T12:55:33.292Z,21.39
2022-09-11T12:58:04.700Z,21.44
2022-09-11T13:00:41.102Z,21.55
2022-09-11T13:03:22.987Z,21.86
2022-09-11T13:05:56.849Z,22.21
2022-09-11T13:08:33.232Z,22.31
2022-09-11T13:11:38.856Z,22.68
2022-09-11T13:14:45.980Z,22.95
2022-09-11T13:17:30.276Z,22.99
2022-09-11T13:20:22.636Z,22.96
2022-09-11T13:22:56.115Z,22.92
2022-09-11T13:25:31.353Z,22.79
2022-09-11T13:28:02.117Z,22.83
2022-09-11T13:30:30.197Z,22.89
2022-09-11T13:33:14.903Z,22.89
2022-09-11T13:35:45.483Z,22.65
2022-09-11T13:38:24.784Z,22.76
2022-09-11T13:40:54.726Z,22.69
2022-09-11T13:43:39.651Z,22.77
2022-09-11T13:46:16.669Z,22.86
2022-09-11T13:48:46.189Z,22.86
2022-09-11T13:51:16.560Z,22.97
2022-09-11T13:53:46.894Z,22.73
2022-09-11T13:56:36.927Z,22.58
2022-09-11T13:59:27.532Z,22.62
2022-09-11T14:02:00.741Z,22.56
2022-09-11T14:04:33.156Z,22.56
2022-09-11T14:07:00.976Z,22.55
2022-09-11T14:09:28.705Z,22.72
2022-09-11T14:12:02.984Z,22.61
2022-09-11T14:14:30.749Z,22.54
2022-09-11T14:17:01.502Z,22.45
2022-09-11T14:19:34.242Z,22.63
2022-09-11T14:22:13.032Z,22.49
2022-09-11T14:24:49.187Z,22.35
2022-09-11T14:27:32.779Z,22.35
2022-09-11T14:30:00.616Z,22.28
2022-09-11T14:32:41.422Z,22.24
2022-09-11T14:35:11.181Z,22.18
2022-09-11T14:37:45.637Z,22.03
2022-09-11T14:40:20.178Z,22.11
2022-09-11T14:42:48.398Z,22.21
2022-09-11T14:45:25.710Z,22.21
2022-09-11T14:47:53.766Z,22.17
2022-09-11T14:50:21.720Z,22.17
2022-09-11T14:52:49.458Z,22.06
2022-09-11T14:55:19.106Z,22.04
2022-09-11T14:57:47.403Z,21.80
2022-09-11T15:00:17.377Z,21.73
2022-09-11T15:02:46.262Z,21.79
2022-09-11T15:05:17.556Z,21.83
2022-09-11T15:07:45.554Z,21.80
2022-09-11T15:10:14.543Z,21.88
2022-09-11T15:12:42.824Z,21.97
2022-09-11T15:15:12.208Z,22.06
2022-09-11T15:17:39.882Z,22.08
2022-09-11T15:20:11.130Z,22.04
2022-09-11T15:22:39.654Z,21.92
2022-09-11T15:25:07.915Z,21.78
2022-09-11T15:27:35.656Z,21.54
2022-09-11T15:30:04.432Z,21.44
2022-09-11T15:32:32.271Z,21.46
2022-09-11T15:35:00.012Z,21.51
2022-09-11T15:37:27.757Z,21.41
2022-09-11T15:39:55.552Z,21.35
2022-09-11T15:42:23.389Z,21.32
2022-09-11T15:44:51.877Z,21.37
2022-09-11T15:47:19.755Z,21.32
2022-09-11T15:49:47.821Z,21.32
2022-09-11T15:52:16.030Z,21.32
2022-09-11T15:54:45.419Z,21.28
2022-09-11T15:57:13.437Z,21.17
2022-09-11T15:59:42.705Z,21.06
2022-09-11T16:02:12.223Z,21.08
2022-09-11T16:04:40.230Z,21.04
2022-09-11T16:07:07.946Z,20.99
2022-09-11T16:09:35.881Z,20.99
2022-09-11T16:12:03.636Z,20.91
2022-09-11T16:14:34.484Z,20.91
2022-09-11T16:17:03.425Z,20.89
2022-09-11T16:19:31.632Z,20.89
2022-09-11T16:22:02.083Z,20.90
2022-09-11T16:24:32.025Z,20.89
2022-09-11T16:27:01.572Z,20.82
2022-09-11T16:29:51.222Z,20.80
2022-09-11T16:32:27.894Z,20.73
2022-09-11T16:34:57.095Z,20.68
2022-09-11T16:37:26.076Z,20.59
2022-09-11T16:39:54.015Z,20.56
2022-09-11T16:42:22.058Z,20.48
2022-09-11T16:44:50.415Z,20.44
2022-09-11T16:47:20.047Z,20.38
2022-09-11T16:50:06.563Z,20.34
2022-09-11T16:52:35.776Z,20.31
2022-09-11T16:55:04.524Z,20.27
2022-09-11T16:57:33.280Z,20.22
2022-09-11T17:00:01.054Z,20.17
2022-09-11T17:02:32.079Z,20.11
2022-09-11T17:04:59.962Z,20.01
2022-09-11T17:07:28.405Z,19.97
2022-09-11T17:09:56.387Z,19.90
2022-09-11T17:12:25.741Z,19.83
2022-09-11T17:14:55.530Z,19.69
2022-09-11T17:17:23.305Z,19.62
2022-09-11T17:19:51.203Z,19.54
2022-09-11T17:22:18.955Z,19.49
2022-09-11T17:24:46.691Z,19.42
2022-09-11T17:27:14.524Z,19.35
2022-09-11T17:29:44.624Z,19.28
2022-09-11T17:32:27.910Z,19.21
2022-09-11T17:34:58.512Z,19.14
2022-09-11T17:37:27.411Z,19.08
2022-09-11T17:39:55.597Z,19.03
2022-09-11T17:42:24.050Z,18.99
2022-09-11T17:44:51.940Z,18.90
2022-09-11T17:47:19.724Z,18.84
2022-09-11T17:49:49.893Z,18.79
2022-09-11T17:52:20.296Z,18.72
2022-09-11T17:54:48.942Z,18.66
2022-09-11T17:57:16.834Z,18.53
2022-09-11T17:59:46.389Z,18.46
2022-09-11T18:02:14.410Z,18.37
2022-09-11T18:04:43.766Z,18.28
2022-09-11T18:07:11.754Z,18.18
2022-09-11T18:09:39.821Z,18.11
2022-09-11T18:12:07.772Z,18.05
2022-09-11T18:14:37.952Z,17.97
2022-09-11T18:17:06.423Z,17.87
2022-09-11T18:19:34.309Z,17.82
2022-09-11T18:22:02.103Z,17.73
2022-09-11T18:24:30.062Z,17.66
2022-09-11T18:27:00.838Z,17.59
2022-09-11T18:29:30.368Z,17.55
2022-09-11T18:32:00.308Z,17.49
2022-09-11T18:34:29.212Z,17.48
2022-09-11T18:36:56.978Z,17.43
2022-09-11T18:39:24.990Z,17.40
2022-09-11T18:41:53.138Z,17.34
2022-09-11T18:44:25.087Z,17.28
2022-09-11T18:46:54.385Z,17.22
2022-09-11T18:49:23.010Z,17.15
2022-09-11T18:51:50.969Z,17.21
2022-09-11T18:54:20.910Z,17.25
2022-09-11T18:56:50.219Z,17.28
2022-09-11T18:59:19.322Z,17.18
2022-09-11T19:01:47.436Z,17.17
2022-09-11T19:04:16.741Z,17.12
2022-09-11T19:06:45.235Z,17.14
2022-09-11T19:09:14.098Z,17.12
2022-09-11T19:11:42.602Z,17.11
2022-09-11T19:14:12.361Z,17.12
2022-09-11T19:16:40.788Z,17.14
2022-09-11T19:19:09.380Z,17.18
2022-09-11T19:21:40.809Z,17.21
2022-09-11T19:24:08.769Z,17.24
2022-09-11T19:26:43.393Z,17.24
2022-09-11T19:29:15.766Z,17.22
2022-09-11T19:31:43.493Z,17.27
2022-09-11T19:34:12.884Z,17.29
2022-09-11T19:36:41.447Z,17.39
2022-09-11T19:39:11.384Z,17.35
2022-09-11T19:41:42.506Z,17.25
2022-09-11T19:44:14.130Z,17.17
2022-09-11T19:46:42.988Z,17.11
2022-09-11T19:49:11.520Z,17.10
2022-09-11T19:51:41.951Z,17.06
2022-09-11T19:54:12.156Z,16.99
2022-09-11T19:56:40.327Z,16.97
2022-09-11T19:59:08.953Z,16.91
2022-09-11T20:01:37.553Z,16.93
2022-09-11T20:04:06.437Z,16.88
2022-09-11T20:06:35.234Z,16.87
2022-09-11T20:11:52.215Z,16.79
2022-09-11T20:14:19.999Z,16.76
2022-09-11T20:16:47.763Z,16.70
2022-09-11T20:19:17.150Z,16.66
2022-09-11T20:21:44.932Z,16.62
2022-09-11T20:24:12.743Z,16.53
2022-09-11T20:26:40.483Z,16.46
2022-09-11T20:29:12.786Z,16.44
2022-09-11T20:31:50.284Z,16.39
2022-09-11T20:34:19.482Z,16.33
2022-09-11T20:36:48.599Z,16.28
2022-09-11T20:39:16.898Z,16.19
2022-09-11T20:41:44.695Z,16.14
2022-09-11T20:44:12.581Z,16.11
2022-09-11T20:46:41.588Z,16.00
2022-09-11T20:49:10.581Z,15.93
2022-09-11T20:51:38.615Z,15.86
2022-09-11T20:54:06.470Z,15.80
2022-09-11T20:56:35.066Z,15.74
2022-09-11T20:59:03.344Z,15.71
2022-09-11T21:01:32.474Z,15.74
2022-09-11T21:04:02.512Z,15.69
2022-09-11T21:06:32.712Z,15.62
2022-09-11T21:09:06.837Z,15.57
2022-09-11T21:11:36.031Z,15.49
2022-09-11T21:14:04.964Z,15.49
2022-09-11T21:16:33.583Z,15.43
2022-09-11T21:19:03.443Z,15.38
2022-09-11T21:21:32.608Z,15.32
2022-09-11T21:24:02.470Z,15.22
2022-09-11T21:26:32.950Z,15.21
2022-09-11T21:29:06.203Z,15.21
2022-09-11T21:31:35.746Z,15.15
2022-09-11T21:34:04.280Z,15.14
2022-09-11T21:36:33.478Z,15.11
2022-09-11T21:39:01.247Z,15.08
2022-09-11T21:41:29.156Z,15.00
2022-09-11T21:43:56.896Z,14.94
2022-09-11T21:46:25.708Z,14.88
2022-09-11T21:48:53.539Z,14.84
2022-09-11T21:51:21.694Z,14.80
2022-09-11T21:53:54.428Z,14.77
2022-09-11T21:56:25.105Z,14.76
2022-09-11T21:58:53.638Z,14.72
2022-09-11T22:01:23.211Z,14.69
2022-09-11T22:03:51.265Z,14.65
2022-09-11T22:06:20.411Z,14.59
2022-09-11T22:08:48.460Z,14.56
2022-09-11T22:11:16.695Z,14.56
2022-09-11T22:13:44.951Z,14.53
2022-09-11T22:16:15.964Z,14.50
2022-09-11T22:18:47.673Z,14.45
2022-09-11T22:21:15.932Z,14.40
2022-09-11T22:23:44.077Z,14.39
2022-09-11T22:26:21.016Z,14.38
2022-09-11T22:28:48.993Z,14.35
2022-09-11T22:31:20.422Z,14.32
2022-09-11T22:33:48.286Z,14.25
2022-09-11T22:36:21.701Z,14.22
2022-09-11T22:38:49.774Z,14.18
2022-09-11T22:41:18.395Z,14.19
2022-09-11T22:43:47.506Z,14.11
2022-09-11T22:46:16.363Z,14.15
2022-09-11T22:48:44.194Z,14.22
2022-09-11T22:51:12.639Z,14.24
2022-09-11T22:53:40.628Z,14.10
2022-09-11T22:56:09.376Z,14.05
2022-09-11T22:58:38.406Z,14.08
2022-09-11T23:01:09.369Z,14.02
2022-09-11T23:03:39.302Z,13.97
2022-09-11T23:06:25.940Z,13.91
2022-09-11T23:08:54.870Z,13.83
2022-09-11T23:11:23.044Z,13.83
2022-09-11T23:13:52.073Z,13.78
2022-09-11T23:16:23.112Z,13.80
2022-09-11T23:18:57.787Z,13.77
2022-09-11T23:21:26.805Z,13.78
2022-09-11T23:23:56.158Z,13.77
2022-09-11T23:26:25.360Z,13.74
2022-09-11T23:28:53.991Z,13.69
2022-09-11T23:31:33.195Z,13.62
2022-09-11T23:34:03.887Z,13.66
2022-09-11T23:36:32.722Z,13.59
2022-09-11T23:39:00.969Z,13.59
2022-09-11T23:41:29.503Z,13.56
2022-09-11T23:43:57.508Z,13.52
2022-09-11T23:46:25.445Z,13.43
2022-09-11T23:48:53.154Z,13.42
2022-09-11T23:51:21.207Z,13.40
2022-09-11T23:53:51.502Z,13.36
2022-09-11T23:56:20.842Z,13.30
2022-09-11T23:58:49.009Z,13.28
